Time;durP1;ratioP1;P1;durP2;ratioP2;P2;SDS_P1;SDS_P2;PMS_P1;PMS_P2;Temp;Humidity;BMP_temperature;BMP_pressure;BME280_temperature;BME280_humidity;BME280_pressure;Samples;Min_cycle;Max_cycle;Signal;HPM_P1;HPM_P2
2023/08/31 00:01:00;;;;;;;13.40;8.70;;;;;;;21.63;62.08;99038.38;105077;1267;71911;-74
2023/08/31 00:03:27;;;;;;;12.50;8.70;;;;;;;21.60;63.38;99036.10;105596;1253;59737;-71
2023/08/31 00:05:54;;;;;;;11.10;8.60;;;;;;;21.58;62.49;99038.50;105737;1255;60124;-71
2023/08/31 00:08:22;;;;;;;14.10;8.70;;;;;;;21.55;62.39;99041.14;105615;1256;72927;-72
2023/08/31 00:10:58;;;;;;;12.50;7.90;;;;;;;21.52;61.93;99040.35;105940;1253;70632;-71
2023/08/31 00:13:26;;;;;;;13.70;8.40;;;;;;;21.50;61.75;99036.97;105661;1254;73283;-73
2023/08/31 00:15:59;;;;;;;12.10;8.50;;;;;;;21.47;61.87;99037.23;105790;1254;60030;-73
2023/08/31 00:18:26;;;;;;;13.20;8.30;;;;;;;21.46;61.63;99034.45;105719;1255;60073;-75
2023/08/31 00:20:53;;;;;;;12.90;8.00;;;;;;;21.47;61.61;99035.27;106046;1255;59564;-72
2023/08/31 00:23:19;;;;;;;21.40;7.90;;;;;;;21.47;61.19;99035.22;105930;1256;70294;-74
2023/08/31 00:25:48;;;;;;;10.40;8.00;;;;;;;21.48;60.91;99031.60;105680;1257;72493;-70
2023/08/31 00:28:15;;;;;;;8.70;7.70;;;;;;;21.47;60.61;99029.43;105765;1256;59797;-73
2023/08/31 00:30:44;;;;;;;12.60;8.00;;;;;;;21.44;60.45;99028.77;105722;1252;60279;-72
2023/08/31 00:33:13;;;;;;;15.10;7.90;;;;;;;21.42;59.98;99027.91;105740;1254;73088;-72
2023/08/31 00:35:46;;;;;;;10.70;7.70;;;;;;;21.41;59.52;99029.52;105585;1253;70679;-72
2023/08/31 00:38:13;;;;;;;;;;;;;;;21.39;59.11;99028.64;105924;1251;72793;-73
2023/08/31 00:40:44;;;;;;;11.00;7.50;;;;;;;21.37;58.90;99023.43;105616;1256;60080;-73
2023/08/31 00:43:12;;;;;;;12.00;7.70;;;;;;;21.35;59.04;99021.64;105727;1257;60213;-72
2023/08/31 00:45:40;;;;;;;12.20;7.20;;;;;;;21.33;58.33;99020.05;105617;1251;71078;-75
2023/08/31 00:48:08;;;;;;;9.80;7.20;;;;;;;21.33;58.20;99020.64;106134;1252;70944;-72
2023/08/31 00:50:35;;;;;;;12.50;8.00;;;;;;;21.32;57.96;99022.73;105890;1259;72474;-73
2023/08/31 00:53:03;;;;;;;18.90;8.00;;;;;;;21.31;57.49;99022.95;105988;1257;60331;-72
2023/08/31 00:55:31;;;;;;;9.90;7.30;;;;;;;21.29;57.41;99022.88;105858;1257;59715;-73
2023/08/31 00:57:59;;;;;;;11.60;7.20;;;;;;;21.28;57.33;99026.42;105898;1257;72721;-70
2023/08/31 01:00:50;;;;;;;12.20;7.50;;;;;;;21.26;57.16;99023.17;106023;1253;70927;-71
2023/08/31 01:03:30;;;;;;;12.00;7.20;;;;;;;21.24;57.09;99026.43;105745;1257;72426;-73
2023/08/31 01:06:09;;;;;;;13.20;8.20;;;;;;;21.23;56.69;99029.08;105955;1256;60193;-72
2023/08/31 01:08:57;;;;;;;11.00;7.50;;;;;;;21.21;56.50;99026.54;105759;1254;60157;-73
2023/08/31 01:11:50;;;;;;;9.60;7.30;;;;;;;21.18;56.23;99021.97;105753;1252;71641;-73
2023/08/31 01:14:19;;;;;;;14.60;7.20;;;;;;;21.15;56.19;99013.61;105724;1256;71278;-73
2023/08/31 01:16:48;;;;;;;11.50;7.30;;;;;;;21.12;55.82;99020.88;106019;1257;72513;-73
2023/08/31 01:19:43;;;;;;;12.30;6.60;;;;;;;21.10;55.58;99020.80;105673;1256;60144;-72
2023/08/31 01:22:13;;;;;;;7.90;6.50;;;;;;;21.10;55.37;99017.40;105918;1251;60201;-73
2023/08/31 01:24:40;;;;;;;13.10;7.70;;;;;;;21.07;55.03;99017.95;105737;1256;72722;-74
2023/08/31 01:27:07;;;;;;;12.60;6.90;;;;;;;21.06;54.87;99019.03;106024;1256;70078;-73
2023/08/31 01:29:34;;;;;;;13.10;7.30;;;;;;;21.04;54.87;99020.84;106027;1256;72388;-72
2023/08/31 01:32:05;;;;;;;14.50;7.20;;;;;;;21.01;54.92;99018.71;105778;1256;60262;-73
2023/08/31 01:34:32;;;;;;;11.90;6.40;;;;;;;20.99;54.62;99021.44;105959;1256;60134;-73
2023/08/31 01:37:00;;;;;;;14.90;6.70;;;;;;;20.96;54.72;99022.17;106040;1257;72932;-72
2023/08/31 01:39:34;;;;;;;11.20;6.70;;;;;;;20.95;54.48;99021.35;106255;1256;70338;-72
2023/08/31 01:42:03;;;;;;;12.00;6.90;;;;;;;20.94;54.20;99021.06;105896;1252;71094;-71
2023/08/31 01:44:34;;;;;;;14.30;6.10;;;;;;;20.92;54.02;99013.70;105896;1251;60216;-72
2023/08/31 01:47:07;;;;;;;10.00;7.00;;;;;;;20.92;54.08;99013.60;105765;1257;59749;-73
2023/08/31 01:49:40;;;;;;;12.90;6.10;;;;;;;20.90;54.17;99019.67;105669;1256;73477;-73
2023/08/31 01:52:07;;;;;;;9.80;6.70;;;;;;;20.88;53.61;99020.19;105936;1257;68936;-74
2023/08/31 01:54:33;;;;;;;10.30;6.20;;;;;;;20.87;53.51;99022.28;105613;1259;59692;-71
2023/08/31 01:57:00;;;;;;;9.30;6.00;;;;;;;20.87;53.51;99017.91;105896;1257;59666;-73
2023/08/31 01:59:27;;;;;;;11.30;6.40;;;;;;;20.85;53.32;99017.19;105865;1261;60176;-70
2023/08/31 02:01:54;;;;;;;12.10;6.60;;;;;;;20.83;53.23;99013.27;105844;1251;72756;-71
2023/08/31 02:04:21;;;;;;;9.90;6.60;;;;;;;20.80;53.22;99016.16;105543;1257;70016;-70
2023/08/31 02:06:48;;;;;;;13.30;6.30;;;;;;;20.78;53.10;99024.30;105709;1264;73412;-70
2023/08/31 02:09:15;;;;;;;14.90;6.60;;;;;;;20.77;53.22;99026.27;105609;1253;60044;-71
2023/08/31 02:11:42;;;;;;;11.00;6.40;;;;;;;20.76;53.01;99027.92;105665;1257;60451;-73
2023/08/31 02:14:08;;;;;;;11.80;5.80;;;;;;;20.75;53.03;99025.97;105953;1254;59772;-73
2023/08/31 02:16:35;;;;;;;8.50;6.10;;;;;;;20.73;52.87;99030.65;105877;1260;59869;-73
2023/08/31 02:19:01;;;;;;;9.00;5.90;;;;;;;20.71;52.93;99034.73;105532;1257;59605;-73
2023/08/31 02:21:28;;;;;;;9.00;5.80;;;;;;;20.70;52.80;99038.17;105841;1257;60394;-72
2023/08/31 02:23:54;;;;;;;13.00;6.50;;;;;;;20.68;52.80;99041.21;106047;1256;59728;-73
2023/08/31 02:26:22;;;;;;;7.90;6.10;;;;;;;20.67;53.04;99043.42;105610;1254;72088;-73
2023/08/31 02:28:49;;;;;;;13.70;6.10;;;;;;;20.66;53.10;99046.88;106149;1256;68930;-74
2023/08/31 02:31:16;;;;;;;9.70;6.10;;;;;;;20.65;52.79;99048.69;106084;1253;72515;-74
2023/08/31 02:33:46;;;;;;;10.10;5.90;;;;;;;20.63;52.73;99049.27;106031;1256;59615;-74
2023/08/31 02:36:13;;;;;;;8.10;5.70;;;;;;;20.61;52.77;99044.98;105973;1251;60445;-74
2023/08/31 02:38:41;;;;;;;10.70;6.10;;;;;;;20.61;52.86;99047.67;105660;1257;73282;-73
2023/08/31 02:41:08;;;;;;;9.30;5.50;;;;;;;20.59;53.04;99048.46;105726;1265;59682;-72
2023/08/31 02:43:36;;;;;;;8.90;6.30;;;;;;;20.57;52.87;99049.73;105948;1255;71518;-70
2023/08/31 02:46:03;;;;;;;12.90;6.10;;;;;;;20.55;53.18;99045.84;105566;1254;60801;-71
2023/08/31 02:48:32;;;;;;;11.30;6.10;;;;;;;20.53;53.08;99047.86;105618;1252;60467;-73
2023/08/31 02:51:00;;;;;;;13.00;6.10;;;;;;;20.51;53.31;99047.51;106199;1255;73555;-73
2023/08/31 02:53:29;;;;;;;9.80;5.90;;;;;;;20.47;53.06;99053.95;106147;1251;70279;-71
2023/08/31 02:55:57;;;;;;;9.80;6.10;;;;;;;20.45;53.25;99048.02;105731;1254;73584;-74
2023/08/31 02:58:23;;;;;;;9.40;6.00;;;;;;;20.43;53.05;99044.33;105654;1258;60464;-72
2023/08/31 03:00:50;;;;;;;18.40;6.50;;;;;;;20.41;52.88;99043.83;105631;1251;60586;-73
2023/08/31 03:03:17;;;;;;;9.10;5.80;;;;;;;20.40;52.93;99044.30;106048;1255;73513;-73
2023/08/31 03:05:44;;;;;;;15.60;5.80;;;;;;;20.39;52.94;99052.37;105951;1257;68779;-74
2023/08/31 03:08:11;;;;;;;8.50;5.60;;;;;;;20.38;52.73;99055.88;105785;1257;72395;-74
2023/08/31 03:10:38;;;;;;;10.40;6.00;;;;;;;20.38;52.74;99059.28;105736;1252;60438;-73
2023/08/31 03:13:05;;;;;;;10.70;6.40;;;;;;;20.36;52.80;99054.77;105709;1258;60477;-74
2023/08/31 03:15:32;;;;;;;9.80;6.10;;;;;;;20.36;52.64;99052.60;105936;1254;73897;-74
2023/08/31 03:17:59;;;;;;;9.30;5.80;;;;;;;20.35;52.66;99053.34;105937;1254;69999;-72
2023/08/31 03:20:26;;;;;;;12.20;5.80;;;;;;;20.35;52.47;99049.02;105944;1251;72439;-72
2023/08/31 03:22:52;;;;;;;11.80;6.30;;;;;;;20.34;52.34;99048.53;105698;1254;60530;-71
2023/08/31 03:25:19;;;;;;;12.30;5.50;;;;;;;20.34;52.38;99040.98;105852;1251;60472;-72
2023/08/31 03:27:47;;;;;;;8.20;5.50;;;;;;;20.34;52.16;99044.42;105877;1254;74512;-73
2023/08/31 03:30:14;;;;;;;12.70;6.30;;;;;;;20.34;52.45;99040.93;105835;1251;69327;-72
2023/08/31 03:32:42;;;;;;;11.90;5.80;;;;;;;20.34;52.50;99036.24;105676;1256;72479;-73
2023/08/31 03:35:09;;;;;;;9.60;5.80;;;;;;;20.36;52.41;99039.50;105939;1263;60429;-74
2023/08/31 03:37:36;;;;;;;9.00;5.80;;;;;;;20.36;52.34;99040.48;106052;1252;60271;-75
2023/08/31 03:40:06;;;;;;;10.90;5.60;;;;;;;20.37;52.28;99042.20;105664;1257;71809;-73
2023/08/31 03:42:34;;;;;;;9.00;6.00;;;;;;;20.37;52.03;99052.30;105933;1258;71157;-74
2023/08/31 03:45:03;;;;;;;14.30;6.60;;;;;;;20.38;51.95;99044.71;106046;1251;72482;-74
2023/08/31 03:47:30;;;;;;;11.00;5.90;;;;;;;20.39;52.02;99043.48;105611;1254;60519;-73
2023/08/31 03:49:57;;;;;;;13.30;5.60;;;;;;;20.39;51.98;99042.45;105923;1251;60328;-73
2023/08/31 03:52:24;;;;;;;15.40;6.20;;;;;;;20.41;51.89;99043.55;105947;1256;73529;-71
2023/08/31 03:54:51;;;;;;;11.50;5.80;;;;;;;20.48;52.11;99042.14;106026;1252;70346;-72
2023/08/31 03:57:17;;;;;;;11.60;5.90;;;;;;;20.57;51.95;99046.46;105943;1256;71239;-72
2023/08/31 03:59:44;;;;;;;7.00;5.40;;;;;;;20.64;51.63;99043.99;105982;1254;60504;-74
2023/08/31 04:02:11;;;;;;;13.00;6.30;;;;;;;20.65;51.62;99043.41;106313;1257;61469;-73
2023/08/31 04:04:38;;;;;;;10.20;5.60;;;;;;;20.65;51.69;99048.09;105838;1254;73890;-72
2023/08/31 04:07:06;;;;;;;9.90;6.30;;;;;;;20.64;51.73;99051.59;105971;1254;70313;-73
2023/08/31 04:09:33;;;;;;;7.60;5.60;;;;;;;20.60;51.75;99046.85;107010;1256;72560;-73
2023/08/31 04:12:00;;;;;;;9.40;6.10;;;;;;;20.58;52.03;99050.04;106373;1254;60488;-75
2023/08/31 04:14:30;;;;;;;10.00;6.40;;;;;;;20.55;51.69;99049.46;106671;1254;60412;-74
2023/08/31 04:16:56;;;;;;;10.80;6.30;;;;;;;20.52;51.99;99044.93;106268;1256;73757;-73
2023/08/31 04:19:23;;;;;;;9.70;6.00;;;;;;;20.49;52.02;99049.42;105544;1254;70264;-74
2023/08/31 04:21:49;;;;;;;10.20;5.60;;;;;;;20.45;51.75;99054.88;106139;1252;72537;-75
2023/08/31 04:24:16;;;;;;;10.00;6.20;;;;;;;20.42;51.72;99060.23;107043;1251;60414;-73
2023/08/31 04:26:43;;;;;;;8.60;5.60;;;;;;;20.39;52.05;99053.94;106837;1254;60479;-74
2023/08/31 04:29:10;;;;;;;10.40;5.70;;;;;;;20.36;52.22;99058.27;106925;1257;73821;-75
2023/08/31 04:31:38;;;;;;;11.10;6.30;;;;;;;20.34;52.16;99058.61;106541;1252;70066;-74
2023/08/31 04:34:04;;;;;;;17.10;6.00;;;;;;;20.32;52.20;99058.05;106848;1256;72371;-75
2023/08/31 04:36:31;;;;;;;10.50;5.60;;;;;;;20.30;52.13;99060.34;106595;1251;60463;-74
2023/08/31 04:38:58;;;;;;;9.60;5.70;;;;;;;20.30;52.19;99060.77;105961;1254;60437;-72
2023/08/31 04:41:24;;;;;;;9.70;5.60;;;;;;;20.30;52.35;99069.35;106282;1255;60436;-73
2023/08/31 04:43:51;;;;;;;10.40;5.40;;;;;;;20.31;52.24;99070.55;106251;1256;60383;-74
2023/08/31 04:46:18;;;;;;;10.00;5.60;;;;;;;20.31;52.35;99069.42;106341;1251;71061;-74
2023/08/31 04:48:44;;;;;;;10.90;5.90;;;;;;;20.32;52.27;99071.63;105844;1251;60549;-74
2023/08/31 04:51:28;;;;;;;11.70;6.00;;;;;;;20.33;52.26;99070.63;106025;1251;60552;-74
2023/08/31 04:53:55;;;;;;;10.00;5.60;;;;;;;20.37;52.42;99064.77;105972;1252;73699;-74
2023/08/31 04:56:22;;;;;;;11.30;6.50;;;;;;;20.43;52.40;99072.66;106047;1251;70724;-74
2023/08/31 04:58:49;;;;;;;11.20;5.50;;;;;;;20.50;52.52;99076.58;106059;1257;72516;-72
2023/08/31 05:01:16;;;;;;;11.40;6.10;;;;;;;20.56;52.33;99074.58;105733;1251;60504;-73
2023/08/31 05:03:42;;;;;;;8.60;5.70;;;;;;;20.64;52.38;99067.46;106036;1251;60475;-75
2023/08/31 05:06:09;;;;;;;14.60;5.80;;;;;;;20.71;52.34;99070.47;105850;1256;60394;-74
2023/08/31 05:08:35;;;;;;;9.00;5.40;;;;;;;20.79;52.13;99076.61;105606;1251;60543;-74
2023/08/31 05:11:02;;;;;;;13.30;6.70;;;;;;;20.87;51.97;99081.11;105814;1257;72195;-74
2023/08/31 05:13:29;;;;;;;10.30;5.10;;;;;;;20.93;51.97;99083.04;105932;1254;60474;-74
2023/08/31 05:15:55;;;;;;;11.60;6.40;;;;;;;21.00;51.99;99086.36;106183;1254;60479;-80
2023/08/31 05:18:22;;;;;;;11.00;6.10;;;;;;;21.09;51.81;99085.60;105901;1251;73069;-79
2023/08/31 05:20:49;;;;;;;9.90;6.00;;;;;;;21.17;51.89;99084.82;105851;1257;60546;-80
2023/08/31 05:23:15;;;;;;;10.00;5.80;;;;;;;21.26;51.80;99090.52;107302;1251;73177;-77
2023/08/31 05:25:43;;;;;;;13.70;5.90;;;;;;;21.32;51.27;99091.15;107846;1254;60354;-79
2023/08/31 05:28:09;;;;;;;10.00;5.90;;;;;;;21.40;51.30;99095.91;107926;1254;59308;-78
2023/08/31 05:30:36;;;;;;;10.90;5.60;;;;;;;21.47;51.10;99096.56;105973;1254;74865;-79
2023/08/31 05:33:04;;;;;;;9.00;5.20;;;;;;;21.51;50.98;99101.95;106177;1257;69718;-80
2023/08/31 05:35:30;;;;;;;9.40;5.20;;;;;;;21.54;50.69;99106.09;107484;1251;72560;-78
2023/08/31 05:37:57;;;;;;;7.40;5.60;;;;;;;21.53;50.61;99108.18;107871;1251;59359;-80
2023/08/31 05:40:24;;;;;;;8.10;5.70;;;;;;;21.52;50.47;99108.66;108169;1253;59696;-79
2023/08/31 05:42:50;;;;;;;8.80;5.70;;;;;;;21.52;50.52;99116.13;107158;1252;60447;-79
2023/08/31 05:45:17;;;;;;;12.40;5.30;;;;;;;21.51;50.62;99119.13;106941;1254;69011;-77
2023/08/31 05:47:44;;;;;;;11.30;5.20;;;;;;;21.50;50.54;99121.98;105675;1251;73084;-79
2023/08/31 05:50:10;;;;;;;10.20;5.80;;;;;;;21.51;50.56;99128.54;105708;1254;61325;-77
2023/08/31 05:52:38;;;;;;;11.30;5.40;;;;;;;21.52;50.44;99123.14;105823;1253;60464;-78
2023/08/31 05:55:06;;;;;;;16.80;5.90;;;;;;;21.53;50.65;99127.54;105688;1254;73711;-77
2023/08/31 05:57:33;;;;;;;10.40;6.40;;;;;;;21.57;50.84;99123.90;105837;1251;70090;-77
2023/08/31 05:59:59;;;;;;;12.10;6.30;;;;;;;21.63;50.82;99119.25;105781;1257;72886;-77
2023/08/31 06:02:26;;;;;;;9.40;6.20;;;;;;;21.73;50.88;99118.80;105677;1254;60562;-76
2023/08/31 06:04:53;;;;;;;12.40;5.00;;;;;;;21.86;50.56;99117.02;105607;1257;60540;-75
2023/08/31 06:07:20;;;;;;;8.70;5.90;;;;;;;21.97;50.45;99118.48;105550;1251;74794;-76
2023/08/31 06:09:48;;;;;;;12.00;6.10;;;;;;;22.09;50.61;99121.58;105664;1251;70792;-75
2023/08/31 06:12:15;;;;;;;9.50;5.40;;;;;;;22.25;50.38;99124.86;105742;1253;73651;-76
2023/08/31 06:14:42;;;;;;;13.80;5.50;;;;;;;22.41;50.04;99121.30;105619;1254;60493;-78
2023/08/31 06:17:11;;;;;;;10.30;4.80;;;;;;;22.56;49.90;99118.96;105522;1254;60411;-76
2023/08/31 06:19:38;;;;;;;12.80;5.80;;;;;;;22.71;49.46;99119.41;105484;1254;74273;-77
2023/08/31 06:22:05;;;;;;;8.20;5.80;;;;;;;22.77;49.38;99120.05;105570;1251;70315;-77
2023/08/31 06:24:32;;;;;;;11.70;5.40;;;;;;;22.85;49.37;99124.68;105546;1251;71956;-78
2023/08/31 06:26:59;;;;;;;9.90;5.30;;;;;;;22.93;49.36;99128.50;105588;1251;60447;-76
2023/08/31 06:29:26;;;;;;;9.20;5.70;;;;;;;23.00;49.21;99131.85;105819;1251;60504;-75
2023/08/31 06:31:53;;;;;;;12.30;5.70;;;;;;;23.06;49.19;99130.98;105437;1257;74399;-78
2023/08/31 06:34:20;;;;;;;10.80;5.60;;;;;;;23.12;49.27;99138.73;105617;1255;71202;-76
2023/08/31 06:36:46;;;;;;;15.00;5.70;;;;;;;23.18;48.83;99139.95;106638;1251;72975;-75
2023/08/31 06:39:13;;;;;;;8.60;5.90;;;;;;;23.25;48.76;99138.20;106142;1251;60444;-76
2023/08/31 06:41:39;;;;;;;12.10;6.40;;;;;;;23.31;48.83;99135.23;106235;1252;61867;-76
2023/08/31 06:44:06;;;;;;;11.30;5.90;;;;;;;23.39;49.12;99140.83;105556;1258;60450;-77
2023/08/31 06:46:37;;;;;;;10.90;6.20;;;;;;;23.47;48.78;99140.58;105713;1256;60481;-76
2023/08/31 06:49:04;;;;;;;10.40;5.10;;;;;;;23.55;48.59;99144.08;105483;1251;72976;-76
2023/08/31 06:51:32;;;;;;;15.60;6.70;;;;;;;23.63;48.41;99144.85;105675;1251;60440;-76
2023/08/31 06:54:06;;;;;;;14.60;6.20;;;;;;;23.68;48.41;99142.63;105733;1251;61036;-77
2023/08/31 06:56:36;;;;;;;11.90;5.90;;;;;;;23.75;48.30;99143.13;105710;1251;72637;-76
2023/08/31 06:59:03;;;;;;;13.60;6.00;;;;;;;23.76;48.56;99142.00;105661;1255;70807;-75
2023/08/31 07:01:30;;;;;;;12.20;6.30;;;;;;;23.76;48.90;99137.88;105672;1251;73055;-77
2023/08/31 07:03:56;;;;;;;11.70;5.80;;;;;;;23.78;49.16;99142.02;105472;1251;60562;-76
2023/08/31 07:06:23;;;;;;;10.60;5.40;;;;;;;23.81;49.02;99140.56;105429;1257;60535;-77
2023/08/31 07:08:50;;;;;;;11.90;5.30;;;;;;;23.86;48.93;99132.91;105527;1258;74412;-76
2023/08/31 07:11:18;;;;;;;11.20;5.70;;;;;;;23.97;49.11;99132.81;105587;1251;70686;-77
2023/08/31 07:13:44;;;;;;;9.80;5.70;;;;;;;24.07;49.11;99134.49;105777;1254;72179;-76
2023/08/31 07:16:11;;;;;;;11.20;6.30;;;;;;;24.19;49.52;99138.45;105712;1251;60549;-76
2023/08/31 07:18:38;;;;;;;16.80;5.90;;;;;;;24.26;49.25;99137.40;105696;1256;60453;-76
2023/08/31 07:21:05;;;;;;;8.80;6.10;;;;;;;24.32;49.13;99137.41;105706;1255;74232;-76
2023/08/31 07:23:32;;;;;;;12.30;6.60;;;;;;;24.40;48.98;99137.72;105445;1251;70894;-76
2023/08/31 07:26:00;;;;;;;13.40;6.30;;;;;;;24.48;49.07;99138.19;106059;1251;73224;-86
2023/08/31 07:28:27;;;;;;;8.90;5.50;;;;;;;24.57;48.92;99139.34;106117;1251;60398;-76
2023/08/31 07:31:06;;;;;;;13.50;6.20;;;;;;;24.67;48.91;99143.40;105945;1254;60407;-74
2023/08/31 07:33:37;;;;;;;9.70;6.00;;;;;;;24.79;49.31;99147.00;106081;1251;72656;-77
2023/08/31 07:36:05;;;;;;;11.20;6.00;;;;;;;24.89;48.90;99140.98;106076;1257;69306;-78
2023/08/31 07:38:32;;;;;;;15.20;6.00;;;;;;;24.99;48.83;99140.45;106100;1252;72649;-73
2023/08/31 07:40:59;;;;;;;11.00;6.20;;;;;;;25.10;48.80;99143.73;105903;1257;60507;-74
2023/08/31 07:43:26;;;;;;;13.90;6.80;;;;;;;25.15;48.54;99140.56;105607;1251;60418;-71
2023/08/31 07:45:53;;;;;;;8.30;5.70;;;;;;;25.18;48.44;99142.61;105889;1252;74205;-73
2023/08/31 07:48:20;;;;;;;10.40;5.70;;;;;;;25.23;48.57;99148.27;105910;1252;68539;-75
2023/08/31 07:50:46;;;;;;;9.00;5.80;;;;;;;25.29;48.58;99145.70;105992;1253;60525;-73
2023/08/31 07:53:13;;;;;;;10.70;5.90;;;;;;;25.37;48.43;99145.33;105523;1251;61124;-72
2023/08/31 07:55:40;;;;;;;12.20;5.40;;;;;;;25.42;48.26;99143.49;105590;1251;60444;-70
2023/08/31 07:58:07;;;;;;;12.00;5.80;;;;;;;25.46;48.25;99137.45;105938;1256;74478;-70
2023/08/31 08:00:33;;;;;;;13.10;6.50;;;;;;;25.55;48.25;99139.51;105431;1257;70687;-73
2023/08/31 08:03:00;;;;;;;6.80;5.60;;;;;;;25.66;48.19;99147.16;105705;1251;73285;-74
2023/08/31 08:05:28;;;;;;;13.30;6.30;;;;;;;25.77;47.72;99149.48;105629;1251;60440;-72
2023/08/31 08:07:54;;;;;;;16.00;6.10;;;;;;;25.85;47.74;99153.02;105615;1253;60625;-73
2023/08/31 08:10:21;;;;;;;11.00;5.60;;;;;;;25.95;47.64;99157.33;105568;1256;74283;-74
2023/08/31 08:12:47;;;;;;;10.70;5.90;;;;;;;26.03;47.31;99150.39;105519;1251;70770;-74
2023/08/31 08:15:14;;;;;;;19.00;5.90;;;;;;;26.11;47.14;99149.84;105653;1250;73104;-74
2023/08/31 08:17:41;;;;;;;9.80;5.90;;;;;;;26.20;46.99;99142.05;105587;1256;60542;-74
2023/08/31 08:20:09;;;;;;;13.40;6.00;;;;;;;26.26;47.07;99140.67;105625;1251;60540;-72
2023/08/31 08:22:36;;;;;;;9.50;5.60;;;;;;;26.33;47.09;99138.05;105696;1253;73853;-72
2023/08/31 08:25:03;;;;;;;15.00;6.30;;;;;;;26.40;46.92;99139.73;105756;1253;70397;-72
2023/08/31 08:27:31;;;;;;;14.90;6.30;;;;;;;26.43;46.54;99138.55;105531;1251;73248;-74
2023/08/31 08:30:01;;;;;;;12.10;5.60;;;;;;;26.47;46.80;99134.54;105565;1256;61216;-73
2023/08/31 08:32:28;;;;;;;12.10;6.00;;;;;;;26.53;46.94;99141.83;105921;1251;60513;-74
2023/08/31 08:34:55;;;;;;;10.00;5.60;;;;;;;26.62;46.53;99131.75;105951;1253;74477;-73
2023/08/31 08:37:21;;;;;;;8.50;5.90;;;;;;;26.76;46.38;99133.93;105926;1254;60457;-75
2023/08/31 08:39:51;;;;;;;12.90;5.70;;;;;;;26.91;46.13;99132.60;105965;1256;72519;-74
2023/08/31 08:42:20;;;;;;;17.00;5.80;;;;;;;27.07;45.76;99130.41;106511;1251;60558;-74
2023/08/31 08:44:46;;;;;;;10.70;5.30;;;;;;;27.22;45.67;99134.41;105813;1254;60467;-75
2023/08/31 08:47:13;;;;;;;13.70;6.40;;;;;;;27.39;45.59;99135.08;105530;1254;74247;-74
2023/08/31 08:49:40;;;;;;;9.30;5.30;;;;;;;27.54;45.39;99134.09;105515;1251;70088;-74
2023/08/31 08:52:06;;;;;;;9.30;5.50;;;;;;;27.71;44.85;99126.05;105586;1256;73408;-75
2023/08/31 08:54:34;;;;;;;9.10;4.90;;;;;;;27.88;44.94;99129.61;105850;1251;60595;-74
2023/08/31 08:57:00;;;;;;;11.40;5.30;;;;;;;28.10;44.33;99132.80;105962;1254;60539;-74
2023/08/31 08:59:27;;;;;;;7.30;5.00;;;;;;;28.31;43.77;99133.70;105371;1253;73844;-75
2023/08/31 09:01:54;;;;;;;8.70;5.60;;;;;;;28.47;43.35;99129.55;105938;1253;70379;-76
2023/08/31 09:04:21;;;;;;;8.90;5.60;;;;;;;28.63;43.61;99128.33;105799;1255;73215;-74
2023/08/31 09:06:52;;;;;;;10.00;5.50;;;;;;;28.92;42.97;99123.06;105899;1253;61103;-74
2023/08/31 09:09:19;;;;;;;10.60;5.70;;;;;;;29.26;42.41;99129.59;105804;1257;60430;-74
2023/08/31 09:11:46;;;;;;;9.30;5.40;;;;;;;29.60;42.06;99129.61;106083;1256;73661;-74
2023/08/31 09:14:14;;;;;;;7.40;5.30;;;;;;;30.01;41.35;99130.17;106001;1253;70317;-73
2023/08/31 09:16:41;;;;;;;11.90;4.80;;;;;;;30.39;40.83;99129.98;106159;1256;72594;-74
2023/08/31 09:19:20;;;;;;;13.90;6.40;;;;;;;30.75;39.86;99131.44;105804;1251;60818;-74
2023/08/31 09:21:51;;;;;;;9.20;4.80;;;;;;;31.06;39.44;99124.42;106012;1251;60543;-72
2023/08/31 09:24:18;;;;;;;12.00;5.20;;;;;;;31.37;39.27;99127.83;105966;1252;73682;-74
2023/08/31 09:26:48;;;;;;;9.30;5.40;;;;;;;31.78;38.85;99129.83;106010;1251;70363;-75
2023/08/31 09:29:15;;;;;;;6.80;4.60;;;;;;;32.26;37.74;99132.86;105882;1253;72774;-75
2023/08/31 09:31:45;;;;;;;7.00;4.60;;;;;;;32.65;36.97;99128.45;106086;1251;60511;-74
2023/08/31 09:34:11;;;;;;;8.90;5.20;;;;;;;33.01;36.79;99128.05;105959;1251;60446;-75
2023/08/31 09:36:38;;;;;;;7.70;4.40;;;;;;;33.41;36.29;99128.34;106059;1256;73946;-75
2023/08/31 09:39:05;;;;;;;8.90;4.80;;;;;;;33.88;35.72;99126.30;106025;1253;70120;-76
2023/08/31 09:41:34;;;;;;;8.60;4.60;;;;;;;34.30;35.31;99130.48;105928;1256;72649;-74
2023/08/31 09:44:22;;;;;;;10.50;5.00;;;;;;;34.68;34.58;99131.69;105970;1251;60435;-73
2023/08/31 09:46:49;;;;;;;11.10;4.90;;;;;;;34.84;34.19;99131.55;106028;1253;60450;-75
2023/08/31 09:49:16;;;;;;;9.30;4.80;;;;;;;34.92;34.14;99131.73;105981;1256;65063;-75
2023/08/31 09:51:48;;;;;;;10.10;5.10;;;;;;;34.94;34.10;99133.94;106062;1252;60516;-76
2023/08/31 09:54:16;;;;;;;9.90;4.20;;;;;;;34.79;34.04;99127.38;105924;1255;63910;-76
2023/08/31 09:56:44;;;;;;;10.80;5.00;;;;;;;34.58;34.44;99129.70;106025;1251;60482;-73
2023/08/31 09:59:11;;;;;;;8.90;4.60;;;;;;;34.44;34.56;99129.14;106165;1252;60457;-77
2023/08/31 10:01:42;;;;;;;8.30;5.10;;;;;;;34.28;34.89;99133.41;106098;1255;73904;-76
2023/08/31 10:04:09;;;;;;;10.30;4.70;;;;;;;34.04;35.15;99145.22;106103;1251;63048;-76
2023/08/31 10:06:38;;;;;;;7.60;4.50;;;;;;;33.74;35.44;99140.45;105889;1253;72620;-77
2023/08/31 10:09:05;;;;;;;10.80;5.80;;;;;;;33.49;35.89;99145.73;105949;1251;60369;-76
2023/08/31 10:11:32;;;;;;;7.90;4.90;;;;;;;33.25;36.30;99147.71;106038;1253;60390;-75
2023/08/31 10:13:59;;;;;;;9.10;5.20;;;;;;;32.93;36.79;99146.52;106048;1255;74151;-76
2023/08/31 10:16:27;;;;;;;10.00;5.50;;;;;;;32.65;37.15;99152.59;105979;1251;70442;-76
2023/08/31 10:18:57;;;;;;;11.60;5.30;;;;;;;32.43;37.47;99151.52;105898;1251;72665;-76
2023/08/31 10:21:23;;;;;;;11.20;4.80;;;;;;;32.26;37.82;99148.11;105832;1251;60465;-77
2023/08/31 10:23:50;;;;;;;9.90;5.20;;;;;;;32.07;37.95;99147.84;105788;1253;60613;-75
2023/08/31 10:26:24;;;;;;;10.90;5.00;;;;;;;31.89;38.26;99147.03;105849;1256;73694;-75
2023/08/31 10:28:51;;;;;;;8.90;5.10;;;;;;;31.77;38.32;99152.86;106050;1253;70144;-76
2023/08/31 10:31:18;;;;;;;9.30;5.30;;;;;;;31.57;38.59;99151.48;105953;1256;71463;-77
2023/08/31 10:33:45;;;;;;;12.30;5.60;;;;;;;31.36;38.67;99158.05;106113;1254;60582;-77
2023/08/31 10:36:15;;;;;;;6.80;4.90;;;;;;;31.15;38.94;99155.77;106114;1254;60393;-75
2023/08/31 10:38:58;;;;;;;11.00;6.40;;;;;;;30.95;39.23;99152.56;105973;1257;72627;-77
2023/08/31 10:41:26;;;;;;;7.70;5.60;;;;;;;30.82;39.60;99147.30;106481;1257;70223;-77
2023/08/31 10:43:54;;;;;;;16.40;5.50;;;;;;;30.81;39.67;99146.75;105980;1254;71263;-76
2023/08/31 10:46:39;;;;;;;10.00;5.60;;;;;;;30.86;39.55;99137.92;105975;1256;60811;-77
2023/08/31 10:49:09;;;;;;;8.50;4.90;;;;;;;31.03;39.57;99138.13;105903;1252;304181;-76
2023/08/31 10:52:31;;;;;;;8.80;5.20;;;;;;;31.33;39.19;99136.63;102740;1291;601913;-75
2023/08/31 10:55:08;;;;;;;12.20;4.90;;;;;;;31.49;38.88;99137.19;105360;1259;60777;-76
2023/08/31 10:57:36;;;;;;;15.00;5.90;;;;;;;31.48;38.35;99139.42;105440;1259;60104;-77
2023/08/31 11:00:04;;;;;;;12.90;4.90;;;;;;;31.28;38.51;99139.23;105202;1259;72274;-76
2023/08/31 11:02:42;;;;;;;12.40;4.90;;;;;;;31.07;38.84;99136.20;105400;1263;69400;-75
2023/08/31 11:05:10;;;;;;;8.10;4.60;;;;;;;30.93;39.10;99132.44;105262;1260;186219;-78
2023/08/31 11:07:40;;;;;;;13.40;5.80;;;;;;;30.87;39.27;99137.02;105636;1262;60020;-76
2023/08/31 11:10:11;;;;;;;11.50;5.20;;;;;;;30.88;39.40;99138.41;105684;1262;59266;-76
2023/08/31 11:12:41;;;;;;;9.70;5.30;;;;;;;30.90;39.48;99134.92;105630;1260;72212;-76
2023/08/31 11:15:12;;;;;;;13.40;5.40;;;;;;;30.98;39.29;99129.83;105542;1257;70264;-77
2023/08/31 11:17:42;;;;;;;14.30;5.00;;;;;;;31.01;39.26;99124.41;106381;1253;72656;-77
2023/08/31 11:20:15;;;;;;;9.60;4.90;;;;;;;31.01;39.49;99127.98;106105;1258;59552;-77
2023/08/31 11:22:43;;;;;;;9.40;4.70;;;;;;;31.02;39.09;99127.29;106026;1255;59565;-77
2023/08/31 11:25:13;;;;;;;8.90;5.00;;;;;;;30.91;38.90;99125.73;106041;1257;73689;-77